Latest Coastal Weather Observations for Kalumburu

IDW60701

Issued at 6:13 pm WST Thursday 23 March 2017 (issued every 10 minutes, with the page automatically refreshed every 10 minutes)

About coastal observations | Map of coastal stations | Coastal observations for WA | Marine services | Other Formats
Station Details ID: 001019 Name: KALUMBURU Lat: -14.30 Lon: 126.65 Height: 23.0 m
Data from the previous 72 hours. | See also: Recent months at Kalumburu
Date/Time
WST
Temp
°C
Wind Pressure Rain since
9am
mm
Weather Cloud Vis
km
Sea
Height
m
Swell
Dir  Spd
kts
Gust
kts
hPa Trend Height
m
Period
s
Dir
23/06:00pm 29.1 SW 2 4 1007.7 - 0.0 - - - - - - -
23/05:30pm 29.9 SW 4 7 1007.3 - 0.0 - - - - - - -
23/05:00pm 30.6 WNW 7 13 1006.9 - 0.0 - - - - - - -
23/04:30pm 31.5 W 7 13 1006.8 - 0.0 - - - - - - -
23/04:00pm 32.4 WNW 7 11 1006.8 - 0.0 - - - - - - -
23/03:30pm 32.2 WNW 8 14 1006.8 - 0.0 - - - - - - -
23/03:00pm 32.8 WNW 8 14 1006.7 - 0.0 - - - - - - -
23/02:30pm 32.5 NW 9 13 1007.1 - 0.0 - - - - - - -
23/02:00pm 32.7 NW 7 10 1007.3 - 0.0 - - - - - - -
23/01:30pm 33.4 NNW 5 7 1007.6 - 0.0 - - - - - - -
23/01:00pm 34.5 W 4 6 1007.8 - 0.0 - - - - - - -
23/12:30pm 34.8 W 5 8 1008.1 - 0.0 - - - - - - -
23/12:00pm 34.7 WSW 3 6 1008.5 - 0.0 - - - - - - -
23/11:30am 33.4 S 5 8 1009.0 - 0.0 - - - - - - -
23/11:00am 32.8 S 5 8 1009.5 - 0.0 - - - - - - -
23/10:30am 32.4 S 6 8 1010.0 - 0.0 - - - - - - -
23/10:00am 30.8 SSW 6 10 1010.1 - 0.0 - - - - - - -
23/09:30am 29.8 S 6 9 1010.4 - 0.0 - - - - - - -
23/09:00am 29.6 S 6 9 1010.6 - 0.0 - - - - - - -
23/08:30am 28.6 S 5 8 1010.6 - 0.0 - - - - - - -
23/08:00am 28.0 S 5 8 1010.4 - 0.0 - - - - - - -
23/07:30am 27.2 SSW 3 5 1010.3 - 0.0 - - - - - - -
23/07:00am 26.3 S 4 6 1010.2 - 0.0 - - - - - - -
23/06:30am 25.3 S 1 4 1010.4 - 0.0 - - - - - - -
23/06:00am 24.6 S 2 3 1010.1 - 0.0 - - - - - - -
23/05:30am 24.3 CALM 0 0 1010.0 - 0.0 - - - - - - -
23/05:00am 24.6 SSE 1 3 1009.7 - 0.0 - - - - - - -
23/04:30am 24.7 SSW 2 4 1009.1 - 0.0 - - - - - - -
23/04:00am 24.6 CALM 0 0 1008.9 - 0.0 - - - - - - -
23/03:30am 24.8 CALM 0 0 1008.6 - 0.0 - - - - - - -
23/03:00am 25.5 SSE 3 4 1008.5 - 0.0 - - - - - - -
23/02:30am 25.1 S 3 4 1008.5 - 0.0 - - - - - - -
23/02:00am 25.3 S 3 4 1008.3 - 0.0 - - - - - - -
23/01:30am 25.1 CALM 0 0 1008.7 - 0.0 - - - - - - -
23/01:00am 25.6 S 1 4 1009.0 - 0.0 - - - - - - -
23/12:30am 25.7 S 3 4 1009.4 - 0.0 - - - - - - -
23/12:00am 26.2 CALM 0 3 1009.7 - 0.0 - - - - - - -
 
Date/Time
WST
Temp
°C
Wind Pressure Rain since
9am
mm
Weather Cloud Vis
km
Sea
Height
m
Swell
Dir  Spd
kts
Gust
kts
hPa Trend Height
m
Period
s
Dir
22/11:30pm 27.1 WSW 2 4 1009.8 - 0.0 - - - - - - -
22/11:00pm 27.2 WSW 2 6 1010.1 - 0.0 - - - - - - -
22/10:30pm 27.7 W 3 7 1010.4 - 0.0 - - - - - - -
22/10:00pm 27.7 WNW 3 5 1010.6 - 0.0 - - - - - - -
22/09:30pm 27.8 W 3 5 1010.6 - 0.0 - - - - - - -
22/09:00pm 28.0 WNW 3 5 1010.5 - 0.0 - - - - - - -
22/08:30pm 28.2 WNW 5 8 1010.1 - 0.0 - - - - - - -
22/08:00pm 28.2 WNW 5 8 1009.7 - 0.0 - - - - - - -
22/07:30pm 28.0 WNW 3 5 1009.3 - 0.0 - - - - - - -
22/07:00pm 27.9 NW 3 5 1008.7 - 0.0 - - - - - - -
22/06:30pm 28.4 WNW 3 5 1008.4 - 0.0 - - - - - - -
22/06:00pm 28.8 NW 5 9 1007.7 - 0.0 - - - - - - -
22/05:30pm 29.2 NW 5 7 1007.1 - 0.0 - - - - - - -
22/05:00pm 29.6 NW 4 8 1006.8 - 0.0 - - - - - - -
22/04:30pm 29.5 CALM 0 0 1006.4 - 0.0 - - - - - - -
22/04:00pm 29.3 CALM 0 0 1006.4 - 0.0 - - - - - - -
22/03:30pm 28.9 W 1 3 1006.7 - 0.0 - - - - - - -
22/03:00pm 28.4 NW 1 4 1006.3 - 0.0 - - - - - - -
22/02:30pm 27.8 SSW 5 8 1007.1 - 0.0 - - - - - - -
22/02:00pm 28.1 SW 5 10 1007.2 - 0.0 - - - - - - -
22/01:30pm 30.0 NW 10 15 1007.0 - 0.0 - - - - - - -
22/01:00pm 32.3 N 9 12 1006.9 - 0.0 - - - - - - -
22/12:30pm 33.0 W 4 9 1007.4 - 0.0 - - - - - - -
22/12:00pm 32.7 WNW 5 8 1008.0 - 0.0 - - - - - - -
22/11:30am 33.0 WNW 5 8 1008.2 - 0.0 - - - - - - -
22/11:00am 31.9 WNW 6 9 1008.6 - 0.0 - - - - - - -
22/10:30am 32.5 W 5 8 1008.9 - 0.0 - - - - - - -
22/10:00am 32.7 W 5 9 1009.3 - 0.0 - - - - - - -
22/09:30am 31.8 W 5 10 1009.7 - 0.0 - - - - - - -
22/09:00am 30.9 WSW 4 7 1010.0 - 0.0 - - - - - - -
22/08:30am 29.8 S 3 6 1010.2 - 0.0 - - - - - - -
22/08:00am 28.6 S 5 7 1010.3 - 0.0 - - - - - - -
22/07:30am 27.9 S 3 6 1010.2 - 0.0 - - - - - - -
22/07:00am 26.7 S 4 5 1009.8 - 0.0 - - - - - - -
22/06:30am 25.8 SSE 3 5 1009.4 - 0.0 - - - - - - -
22/06:00am 24.7 CALM 0 0 1009.2 - 0.0 - - - - - - -
22/05:30am 24.7 S 3 4 1009.0 - 0.0 - - - - - - -
22/05:00am 24.6 CALM 0 0 1008.6 - 0.0 - - - - - - -
22/04:30am 24.7 S 2 4 1008.3 - 0.0 - - - - - - -
22/04:00am 25.0 S 3 5 1008.3 - 0.0 - - - - - - -
22/03:30am 25.1 S 4 5 1008.2 - 0.0 - - - - - - -
22/03:00am 25.2 SSW 3 4 1008.0 - 0.0 - - - - - - -
22/02:30am 25.1 CALM 0 0 1008.1 - 0.0 - - - - - - -
22/02:00am 25.1 CALM 0 0 1008.1 - 0.0 - - - - - - -
22/01:30am 25.3 CALM 0 0 1008.5 - 0.0 - - - - - - -
22/01:00am 25.5 S 3 4 1008.9 - 0.0 - - - - - - -
22/12:30am 25.5 CALM 0 0 1009.0 - 0.0 - - - - - - -
22/12:00am 25.6 CALM 0 0 1009.3 - 0.0 - - - - - - -
 
Date/Time
WST
Temp
°C
Wind Pressure Rain since
9am
mm
Weather Cloud Vis
km
Sea
Height
m
Swell
Dir  Spd
kts
Gust
kts
hPa Trend Height
m
Period
s
Dir
21/11:30pm 25.6 CALM 0 0 1009.5 - 0.0 - - - - - - -
21/11:00pm 25.7 SSE 2 4 1009.8 - 0.0 - - - - - - -
21/10:30pm 25.9 CALM 0 3 1009.7 - 0.0 - - - - - - -
21/10:00pm 25.9 SE 2 5 1009.5 - 0.0 - - - - - - -
21/09:30pm 26.1 W 3 7 1009.7 - 0.0 - - - - - - -
21/09:00pm 26.0 W 1 3 1009.6 - 0.0 - - - - - - -
21/08:30pm 25.8 CALM 0 0 1009.8 - 0.0 - - - - - - -
21/08:00pm 25.6 ENE 3 5 1009.9 - 0.0 - - - - - - -
21/07:30pm 25.5 ENE 8 13 1009.3 - 0.0 - - - - - - -
21/07:00pm 27.5 E 9 15 1008.6 - 0.0 - - - - - - -
21/06:30pm 29.0 NW 5 8 1007.3 - 0.0 - - - - - - -
21/06:00pm 29.3 NW 6 9 1006.6 - 0.0 - - - - - - -
21/05:30pm 29.9 NW 6 10 1006.3 - 0.0 - - - - - - -
21/05:00pm 31.1 WNW 7 12 1005.8 - 0.0 - - - - - - -
21/04:30pm 31.6 WNW 7 11 1005.3 - 0.0 - - - - - - -
21/04:00pm 32.7 WNW 7 13 1005.3 - 0.0 - - - - - - -
21/03:30pm 32.9 NW 7 13 1005.3 - 0.0 - - - - - - -
21/03:00pm 33.6 NW 7 10 1005.4 - 0.0 - - - - - - -
21/02:30pm 33.5 NW 7 10 1005.4 - 0.0 - - - - - - -
21/02:00pm 32.2 NW 6 9 1006.0 - 0.0 - - - - - - -
21/01:30pm 33.7 NW 6 11 1006.1 - 0.0 - - - - - - -
21/01:00pm 32.8 NW 9 13 1006.7 - 0.0 - - - - - - -
21/12:30pm 32.4 NW 9 15 1007.2 - 0.0 - - - - - - -
21/12:00pm 32.4 NNW 11 18 1007.9 - 0.0 - - - - - - -
21/11:30am 33.1 WNW 6 11 1008.4 - 0.0 - - - - - - -
21/11:00am 31.9 NNW 8 13 1008.9 - 0.0 - - - - - - -
21/10:30am 32.4 W 5 11 1009.1 - 0.0 - - - - - - -
21/10:00am 32.3 NW 4 9 1009.4 - 0.0 - - - - - - -
21/09:30am 31.9 NNW 3 6 1009.4 - 0.0 - - - - - - -
21/09:00am 31.0 NW 3 6 1009.3 - 0.0 - - - - - - -
21/08:30am 30.0 SW 3 5 1009.4 - 0.0 - - - - - - -
21/08:00am 29.1 SSW 2 4 1009.2 - 0.0 - - - - - - -
21/07:30am 28.2 S 4 5 1009.1 - 0.0 - - - - - - -
21/07:00am 27.3 S 3 4 1009.0 - 0.0 - - - - - - -
21/06:30am 26.2 CALM 0 0 1008.8 - 0.0 - - - - - - -
21/06:00am 25.3 CALM 0 0 1008.8 - 0.0 - - - - - - -
21/05:30am 25.4 CALM 0 0 1008.5 - 0.0 - - - - - - -
21/05:00am 25.4 CALM 0 0 1008.3 - 0.0 - - - - - - -
21/04:30am 25.2 S 1 3 1007.8 - 0.0 - - - - - - -
21/04:00am 24.9 CALM 0 0 1007.7 - 0.0 - - - - - - -
21/03:30am 25.1 CALM 0 0 1007.5 - 0.0 - - - - - - -
21/03:00am 25.4 CALM 0 0 1007.4 - 0.0 - - - - - - -
21/02:30am 25.6 CALM 0 0 1007.7 - 0.0 - - - - - - -
21/02:00am 26.0 CALM 0 0 1007.9 - 0.0 - - - - - - -
21/01:30am 25.9 CALM 0 0 1008.1 - 0.0 - - - - - - -
21/01:00am 25.9 CALM 0 0 1008.2 - 0.0 - - - - - - -
21/12:30am 25.8 CALM 0 0 1008.6 - 0.0 - - - - - - -
21/12:00am 25.9 CALM 0 0 1008.6 - 0.0 - - - - - - -
 
Date/Time
WST
Temp
°C
Wind Pressure Rain since
9am
mm
Weather Cloud Vis
km
Sea
Height
m
Swell
Dir  Spd
kts
Gust
kts
hPa Trend Height
m
Period
s
Dir
20/11:30pm 25.8 CALM 0 0 1008.7 - 0.0 - - - - - - -
20/11:00pm 25.9 CALM 0 0 1009.0 - 0.0 - - - - - - -
20/10:30pm 26.1 CALM 0 0 1009.2 - 0.0 - - - - - - -
20/10:00pm 26.0 CALM 0 0 1009.1 - 0.0 - - - - - - -
20/09:30pm 26.2 CALM 0 0 1008.9 - 0.0 - - - - - - -
20/09:00pm 26.9 NW 3 4 1008.9 - 0.0 - - - - - - -
20/08:30pm 27.5 NW 5 6 1008.9 - 0.0 - - - - - - -
20/08:00pm 26.9 NNW 1 3 1008.3 - 0.0 - - - - - - -
20/07:30pm 26.9 NNW 1 4 1007.7 - 0.0 - - - - - - -
20/07:00pm 27.2 NNW 3 4 1007.3 - 0.0 - - - - - - -
20/06:30pm 27.6 N 3 4 1006.9 - 0.0 - - - - - - -

Other Formats:

Comma delimited format used in spreadsheet applications
http://www.bom.gov.au/fwo/IDW60701/IDW60701.94100.axf

JavaScript Object Notation format (JSON) in row-major order
http://www.bom.gov.au/fwo/IDW60701/IDW60701.94100.json